sensor_id;sensor_type;location;lat;lon;timestamp;pressure;altitude;pressure_sealevel;temperature;humidity
31195;BME280;17819;36.316;-93.164;2022-08-21T00:00:31;114490.28;;;-146.31;57.97
31195;BME280;17819;36.316;-93.164;2022-08-21T00:02:36;114490.28;;;-146.31;57.13
31195;BME280;17819;36.316;-93.164;2022-08-21T00:04:40;114490.28;;;-146.31;57.51
31195;BME280;17819;36.316;-93.164;2022-08-21T00:07:00;114490.28;;;-146.31;57.12
31195;BME280;17819;36.316;-93.164;2022-08-21T00:09:05;114490.28;;;-146.31;57.21
31195;BME280;17819;36.316;-93.164;2022-08-21T00:11:10;114490.28;;;-146.31;58.37
31195;BME280;17819;36.316;-93.164;2022-08-21T00:13:29;114490.28;;;-146.31;57.71
31195;BME280;17819;36.316;-93.164;2022-08-21T00:15:33;114490.28;;;-146.31;58.18
31195;BME280;17819;36.316;-93.164;2022-08-21T00:17:37;114490.28;;;-146.31;60.43
31195;BME280;17819;36.316;-93.164;2022-08-21T00:19:41;114490.28;;;-146.31;61.19
31195;BME280;17819;36.316;-93.164;2022-08-21T00:21:46;114490.28;;;-146.31;60.24
31195;BME280;17819;36.316;-93.164;2022-08-21T00:23:51;114490.28;;;-146.31;60.13
31195;BME280;17819;36.316;-93.164;2022-08-21T00:25:54;114490.28;;;-146.31;60.74
31195;BME280;17819;36.316;-93.164;2022-08-21T00:27:58;114490.28;;;-146.31;60.56
31195;BME280;17819;36.316;-93.164;2022-08-21T00:30:04;114490.28;;;-146.31;61.32
31195;BME280;17819;36.316;-93.164;2022-08-21T00:32:08;114490.28;;;-146.31;62.21
31195;BME280;17819;36.316;-93.164;2022-08-21T00:34:12;114490.28;;;-146.31;62.30
31195;BME280;17819;36.316;-93.164;2022-08-21T00:36:16;114490.28;;;-146.31;63.87
31195;BME280;17819;36.316;-93.164;2022-08-21T00:38:20;114490.28;;;-146.31;64.71
31195;BME280;17819;36.316;-93.164;2022-08-21T00:40:26;114490.28;;;-146.31;63.26
31195;BME280;17819;36.316;-93.164;2022-08-21T00:42:31;114490.28;;;-146.31;65.01
31195;BME280;17819;36.316;-93.164;2022-08-21T00:44:35;114490.28;;;-146.31;64.85
31195;BME280;17819;36.316;-93.164;2022-08-21T00:46:40;114490.28;;;-146.31;65.69
31195;BME280;17819;36.316;-93.164;2022-08-21T00:48:45;114490.28;;;-146.31;66.00
31195;BME280;17819;36.316;-93.164;2022-08-21T00:51:05;114490.28;;;-146.31;65.80
31195;BME280;17819;36.316;-93.164;2022-08-21T00:53:10;114490.28;;;-146.31;66.17
31195;BME280;17819;36.316;-93.164;2022-08-21T00:55:19;114490.28;;;-146.31;67.50
31195;BME280;17819;36.316;-93.164;2022-08-21T00:57:30;114490.28;;;-146.31;66.68
31195;BME280;17819;36.316;-93.164;2022-08-21T00:59:36;114490.28;;;-146.31;67.79
31195;BME280;17819;36.316;-93.164;2022-08-21T01:01:41;114490.28;;;-146.31;68.35
31195;BME280;17819;36.316;-93.164;2022-08-21T01:03:46;114490.28;;;-146.31;67.97
31195;BME280;17819;36.316;-93.164;2022-08-21T01:05:51;114490.28;;;-146.31;68.77
31195;BME280;17819;36.316;-93.164;2022-08-21T01:07:55;114490.28;;;-146.31;69.22
31195;BME280;17819;36.316;-93.164;2022-08-21T01:10:04;114490.28;;;-146.31;68.42
31195;BME280;17819;36.316;-93.164;2022-08-21T01:12:09;114490.28;;;-146.31;69.54
31195;BME280;17819;36.316;-93.164;2022-08-21T01:14:13;114490.28;;;-146.31;69.96
31195;BME280;17819;36.316;-93.164;2022-08-21T01:16:18;114490.28;;;-146.31;71.35
31195;BME280;17819;36.316;-93.164;2022-08-21T01:18:23;114490.28;;;-146.31;69.80
31195;BME280;17819;36.316;-93.164;2022-08-21T01:20:27;114490.28;;;-146.31;69.36
31195;BME280;17819;36.316;-93.164;2022-08-21T01:22:33;114490.28;;;-146.31;69.51
31195;BME280;17819;36.316;-93.164;2022-08-21T01:24:37;114490.28;;;-146.31;70.85
31195;BME280;17819;36.316;-93.164;2022-08-21T01:26:42;114490.28;;;-146.31;69.92
31195;BME280;17819;36.316;-93.164;2022-08-21T01:28:48;114490.28;;;-146.31;70.62
31195;BME280;17819;36.316;-93.164;2022-08-21T01:30:54;114490.28;;;-146.31;71.33
31195;BME280;17819;36.316;-93.164;2022-08-21T01:32:58;114490.28;;;-146.31;71.29
31195;BME280;17819;36.316;-93.164;2022-08-21T01:35:02;114490.28;;;-146.31;71.06
31195;BME280;17819;36.316;-93.164;2022-08-21T01:37:06;114490.28;;;-146.31;71.62
31195;BME280;17819;36.316;-93.164;2022-08-21T01:39:11;114490.28;;;-146.31;72.27
31195;BME280;17819;36.316;-93.164;2022-08-21T01:41:17;114490.28;;;-146.31;72.99
31195;BME280;17819;36.316;-93.164;2022-08-21T01:43:21;114490.28;;;-146.31;73.77
31195;BME280;17819;36.316;-93.164;2022-08-21T01:45:40;114490.28;;;-146.31;73.81
31195;BME280;17819;36.316;-93.164;2022-08-21T01:47:44;114490.28;;;-146.31;73.05
31195;BME280;17819;36.316;-93.164;2022-08-21T01:49:48;114490.28;;;-146.31;72.84
31195;BME280;17819;36.316;-93.164;2022-08-21T01:51:52;114490.28;;;-146.31;74.31
31195;BME280;17819;36.316;-93.164;2022-08-21T01:53:58;114490.28;;;-146.31;74.11
31195;BME280;17819;36.316;-93.164;2022-08-21T01:56:06;114490.28;;;-146.31;74.93
31195;BME280;17819;36.316;-93.164;2022-08-21T01:58:13;114490.28;;;-146.31;75.16
31195;BME280;17819;36.316;-93.164;2022-08-21T02:00:20;114490.28;;;-146.31;75.57
31195;BME280;17819;36.316;-93.164;2022-08-21T02:02:25;114490.28;;;-146.31;74.46
31195;BME280;17819;36.316;-93.164;2022-08-21T02:04:30;114490.28;;;-146.31;74.68
31195;BME280;17819;36.316;-93.164;2022-08-21T02:06:34;114490.28;;;-146.31;74.33
31195;BME280;17819;36.316;-93.164;2022-08-21T02:08:38;114490.28;;;-146.31;75.03
31195;BME280;17819;36.316;-93.164;2022-08-21T02:10:45;114490.28;;;-146.31;72.86
31195;BME280;17819;36.316;-93.164;2022-08-21T02:12:50;114490.28;;;-146.31;74.05
31195;BME280;17819;36.316;-93.164;2022-08-21T02:14:54;114490.28;;;-146.31;73.35
31195;BME280;17819;36.316;-93.164;2022-08-21T02:16:58;114490.28;;;-146.31;73.76
31195;BME280;17819;36.316;-93.164;2022-08-21T02:19:13;114490.28;;;-146.31;73.10
31195;BME280;17819;36.316;-93.164;2022-08-21T02:21:17;114490.28;;;-146.31;73.22
31195;BME280;17819;36.316;-93.164;2022-08-21T02:23:24;114490.28;;;-146.31;74.14
31195;BME280;17819;36.316;-93.164;2022-08-21T02:25:29;114490.28;;;-146.31;74.47
31195;BME280;17819;36.316;-93.164;2022-08-21T02:27:43;114490.28;;;-146.31;75.04
31195;BME280;17819;36.316;-93.164;2022-08-21T02:29:47;114490.28;;;-146.31;74.97
31195;BME280;17819;36.316;-93.164;2022-08-21T02:31:51;114490.28;;;-146.31;75.25
31195;BME280;17819;36.316;-93.164;2022-08-21T02:33:57;114490.28;;;-146.31;75.69
31195;BME280;17819;36.316;-93.164;2022-08-21T02:38:41;114490.28;;;-146.31;75.27
31195;BME280;17819;36.316;-93.164;2022-08-21T02:40:48;114490.28;;;-146.31;74.86
31195;BME280;17819;36.316;-93.164;2022-08-21T02:42:52;114490.28;;;-146.31;74.86
31195;BME280;17819;36.316;-93.164;2022-08-21T02:44:56;114490.28;;;-146.31;75.22
31195;BME280;17819;36.316;-93.164;2022-08-21T02:47:00;114490.28;;;-146.31;75.21
31195;BME280;17819;36.316;-93.164;2022-08-21T02:49:09;114490.28;;;-146.31;77.36
31195;BME280;17819;36.316;-93.164;2022-08-21T02:51:15;114490.28;;;-146.31;75.40
31195;BME280;17819;36.316;-93.164;2022-08-21T02:53:20;114490.28;;;-146.31;75.99
31195;BME280;17819;36.316;-93.164;2022-08-21T02:55:24;114490.28;;;-146.31;76.45
31195;BME280;17819;36.316;-93.164;2022-08-21T02:57:29;114490.28;;;-146.31;75.82
31195;BME280;17819;36.316;-93.164;2022-08-21T02:59:35;114490.28;;;-146.31;74.71
31195;BME280;17819;36.316;-93.164;2022-08-21T03:01:39;114490.28;;;-146.31;75.77
31195;BME280;17819;36.316;-93.164;2022-08-21T03:03:45;114490.28;;;-146.31;75.76
31195;BME280;17819;36.316;-93.164;2022-08-21T03:05:53;114490.28;;;-146.31;76.63
31195;BME280;17819;36.316;-93.164;2022-08-21T03:07:58;114490.28;;;-146.31;76.35
31195;BME280;17819;36.316;-93.164;2022-08-21T03:10:06;114490.28;;;-146.31;76.23
31195;BME280;17819;36.316;-93.164;2022-08-21T03:12:10;114490.28;;;-146.31;75.78
31195;BME280;17819;36.316;-93.164;2022-08-21T03:14:13;114490.28;;;-146.31;75.85
31195;BME280;17819;36.316;-93.164;2022-08-21T03:16:17;114490.28;;;-146.31;76.17
31195;BME280;17819;36.316;-93.164;2022-08-21T03:18:22;114490.28;;;-146.31;77.08
31195;BME280;17819;36.316;-93.164;2022-08-21T03:20:27;114490.28;;;-146.31;78.22
31195;BME280;17819;36.316;-93.164;2022-08-21T03:22:34;114490.28;;;-146.31;78.87
31195;BME280;17819;36.316;-93.164;2022-08-21T03:24:38;114490.28;;;-146.31;77.97
31195;BME280;17819;36.316;-93.164;2022-08-21T03:26:45;114490.28;;;-146.31;77.55
31195;BME280;17819;36.316;-93.164;2022-08-21T03:28:49;114490.28;;;-146.31;77.42
31195;BME280;17819;36.316;-93.164;2022-08-21T03:30:53;114490.28;;;-146.31;77.28
31195;BME280;17819;36.316;-93.164;2022-08-21T03:32:58;114490.28;;;-146.31;78.09
31195;BME280;17819;36.316;-93.164;2022-08-21T03:35:02;114490.28;;;-146.31;78.34
31195;BME280;17819;36.316;-93.164;2022-08-21T03:37:07;114490.28;;;-146.31;78.53
31195;BME280;17819;36.316;-93.164;2022-08-21T03:39:12;114490.28;;;-146.31;78.09
31195;BME280;17819;36.316;-93.164;2022-08-21T03:41:17;114490.28;;;-146.31;78.72
31195;BME280;17819;36.316;-93.164;2022-08-21T03:43:21;114490.28;;;-146.31;79.00
31195;BME280;17819;36.316;-93.164;2022-08-21T03:45:25;114490.28;;;-146.31;78.49
31195;BME280;17819;36.316;-93.164;2022-08-21T03:47:29;114490.28;;;-146.31;79.02
31195;BME280;17819;36.316;-93.164;2022-08-21T03:49:33;114490.28;;;-146.31;78.50
31195;BME280;17819;36.316;-93.164;2022-08-21T03:51:37;114490.28;;;-146.31;78.81
31195;BME280;17819;36.316;-93.164;2022-08-21T03:53:41;114490.28;;;-146.31;78.97
31195;BME280;17819;36.316;-93.164;2022-08-21T03:55:45;114490.28;;;-146.31;79.36
31195;BME280;17819;36.316;-93.164;2022-08-21T03:57:52;114490.28;;;-146.31;79.62
31195;BME280;17819;36.316;-93.164;2022-08-21T03:59:56;114490.28;;;-146.31;79.69
31195;BME280;17819;36.316;-93.164;2022-08-21T04:02:00;114490.28;;;-146.31;80.83
31195;BME280;17819;36.316;-93.164;2022-08-21T04:04:05;114490.28;;;-146.31;81.37
31195;BME280;17819;36.316;-93.164;2022-08-21T04:06:09;114490.28;;;-146.31;80.85
31195;BME280;17819;36.316;-93.164;2022-08-21T04:08:13;114490.28;;;-146.31;80.85
31195;BME280;17819;36.316;-93.164;2022-08-21T04:10:17;114490.28;;;-146.31;81.83
31195;BME280;17819;36.316;-93.164;2022-08-21T04:12:22;114490.28;;;-146.31;83.22
31195;BME280;17819;36.316;-93.164;2022-08-21T04:14:29;114490.28;;;-146.31;83.07
31195;BME280;17819;36.316;-93.164;2022-08-21T04:16:33;114490.28;;;-146.31;82.69
31195;BME280;17819;36.316;-93.164;2022-08-21T04:18:37;114490.28;;;-146.31;83.24
31195;BME280;17819;36.316;-93.164;2022-08-21T04:20:43;114490.28;;;-146.31;81.87
31195;BME280;17819;36.316;-93.164;2022-08-21T04:22:51;114490.28;;;-146.31;81.88
31195;BME280;17819;36.316;-93.164;2022-08-21T04:24:58;114490.28;;;-146.31;81.58
31195;BME280;17819;36.316;-93.164;2022-08-21T04:27:02;114490.28;;;-146.31;81.13
31195;BME280;17819;36.316;-93.164;2022-08-21T04:29:05;114490.28;;;-146.31;80.56
31195;BME280;17819;36.316;-93.164;2022-08-21T04:31:12;114490.28;;;-146.31;80.12
31195;BME280;17819;36.316;-93.164;2022-08-21T04:33:16;114490.28;;;-146.31;80.55
31195;BME280;17819;36.316;-93.164;2022-08-21T04:35:23;114490.28;;;-146.31;80.86
31195;BME280;17819;36.316;-93.164;2022-08-21T04:37:28;114490.28;;;-146.31;80.03
31195;BME280;17819;36.316;-93.164;2022-08-21T04:39:32;114490.28;;;-146.31;80.49
31195;BME280;17819;36.316;-93.164;2022-08-21T04:41:36;114490.28;;;-146.31;80.11
31195;BME280;17819;36.316;-93.164;2022-08-21T04:43:39;114490.28;;;-146.31;80.12
31195;BME280;17819;36.316;-93.164;2022-08-21T04:45:44;114490.28;;;-146.31;79.84
31195;BME280;17819;36.316;-93.164;2022-08-21T04:47:49;114490.28;;;-146.31;79.62
31195;BME280;17819;36.316;-93.164;2022-08-21T04:49:54;114490.28;;;-146.31;79.53
31195;BME280;17819;36.316;-93.164;2022-08-21T04:51:58;114490.28;;;-146.31;78.69
31195;BME280;17819;36.316;-93.164;2022-08-21T04:54:05;114490.28;;;-146.31;78.66
31195;BME280;17819;36.316;-93.164;2022-08-21T04:56:24;114490.28;;;-146.31;78.43
31195;BME280;17819;36.316;-93.164;2022-08-21T04:58:28;114490.28;;;-146.31;78.50
31195;BME280;17819;36.316;-93.164;2022-08-21T05:00:34;114490.28;;;-146.31;78.23
31195;BME280;17819;36.316;-93.164;2022-08-21T05:02:37;114490.28;;;-146.31;77.81
31195;BME280;17819;36.316;-93.164;2022-08-21T05:04:42;114490.28;;;-146.31;77.81
31195;BME280;17819;36.316;-93.164;2022-08-21T05:06:47;114490.28;;;-146.31;77.34
31195;BME280;17819;36.316;-93.164;2022-08-21T05:08:55;114490.28;;;-146.31;77.30
31195;BME280;17819;36.316;-93.164;2022-08-21T05:11:03;114490.28;;;-146.31;77.11
31195;BME280;17819;36.316;-93.164;2022-08-21T05:13:10;114490.28;;;-146.31;77.59
31195;BME280;17819;36.316;-93.164;2022-08-21T05:15:15;114490.28;;;-146.31;76.70
31195;BME280;17819;36.316;-93.164;2022-08-21T05:17:23;114490.28;;;-146.31;77.14
31195;BME280;17819;36.316;-93.164;2022-08-21T05:19:30;114490.28;;;-146.31;76.91
31195;BME280;17819;36.316;-93.164;2022-08-21T05:21:35;114490.28;;;-146.31;75.62
31195;BME280;17819;36.316;-93.164;2022-08-21T05:23:40;114490.28;;;-146.31;75.57
31195;BME280;17819;36.316;-93.164;2022-08-21T05:25:43;114490.28;;;-146.31;75.50
31195;BME280;17819;36.316;-93.164;2022-08-21T05:27:47;114490.28;;;-146.31;75.60
31195;BME280;17819;36.316;-93.164;2022-08-21T05:29:53;114490.28;;;-146.31;75.40
31195;BME280;17819;36.316;-93.164;2022-08-21T05:31:57;114490.28;;;-146.31;75.44
31195;BME280;17819;36.316;-93.164;2022-08-21T05:34:02;114490.28;;;-146.31;75.65
31195;BME280;17819;36.316;-93.164;2022-08-21T05:36:06;114490.28;;;-146.31;75.31
31195;BME280;17819;36.316;-93.164;2022-08-21T05:38:09;114490.28;;;-146.31;75.34
31195;BME280;17819;36.316;-93.164;2022-08-21T05:40:19;114490.28;;;-146.31;75.37
31195;BME280;17819;36.316;-93.164;2022-08-21T05:42:24;114490.28;;;-146.31;75.71
31195;BME280;17819;36.316;-93.164;2022-08-21T05:44:31;114490.28;;;-146.31;75.33
31195;BME280;17819;36.316;-93.164;2022-08-21T05:46:37;114490.28;;;-146.31;75.91
31195;BME280;17819;36.316;-93.164;2022-08-21T05:48:41;114490.28;;;-146.31;75.84
31195;BME280;17819;36.316;-93.164;2022-08-21T05:50:46;114490.28;;;-146.31;75.64
31195;BME280;17819;36.316;-93.164;2022-08-21T05:52:50;114490.28;;;-146.31;75.50
31195;BME280;17819;36.316;-93.164;2022-08-21T05:55:00;114490.28;;;-146.31;75.52
31195;BME280;17819;36.316;-93.164;2022-08-21T05:57:03;114490.28;;;-146.31;75.46
31195;BME280;17819;36.316;-93.164;2022-08-21T05:59:07;114490.28;;;-146.31;75.12
31195;BME280;17819;36.316;-93.164;2022-08-21T06:01:11;114490.28;;;-146.31;74.72
31195;BME280;17819;36.316;-93.164;2022-08-21T06:03:16;114490.28;;;-146.31;74.35
31195;BME280;17819;36.316;-93.164;2022-08-21T06:05:20;114490.28;;;-146.31;74.68
31195;BME280;17819;36.316;-93.164;2022-08-21T06:07:38;114490.28;;;-146.31;74.62
31195;BME280;17819;36.316;-93.164;2022-08-21T06:09:42;114490.28;;;-146.31;74.68
31195;BME280;17819;36.316;-93.164;2022-08-21T06:11:46;114490.28;;;-146.31;74.82
31195;BME280;17819;36.316;-93.164;2022-08-21T06:13:49;114490.28;;;-146.31;75.03
31195;BME280;17819;36.316;-93.164;2022-08-21T06:16:04;114490.28;;;-146.31;75.12
31195;BME280;17819;36.316;-93.164;2022-08-21T06:18:09;114490.28;;;-146.31;75.13
31195;BME280;17819;36.316;-93.164;2022-08-21T06:20:13;114490.28;;;-146.31;75.06
31195;BME280;17819;36.316;-93.164;2022-08-21T06:22:16;114490.28;;;-146.31;74.42
31195;BME280;17819;36.316;-93.164;2022-08-21T06:24:20;114490.28;;;-146.31;74.20
31195;BME280;17819;36.316;-93.164;2022-08-21T06:26:24;114490.28;;;-146.31;73.80
31195;BME280;17819;36.316;-93.164;2022-08-21T06:28:27;114490.28;;;-146.31;74.14
31195;BME280;17819;36.316;-93.164;2022-08-21T06:30:31;114490.28;;;-146.31;74.02
31195;BME280;17819;36.316;-93.164;2022-08-21T06:32:35;114490.28;;;-146.31;73.80
31195;BME280;17819;36.316;-93.164;2022-08-21T06:34:40;114490.28;;;-146.31;73.78
31195;BME280;17819;36.316;-93.164;2022-08-21T06:36:44;114490.28;;;-146.31;73.93
31195;BME280;17819;36.316;-93.164;2022-08-21T06:38:47;114490.28;;;-146.31;73.91
31195;BME280;17819;36.316;-93.164;2022-08-21T06:40:52;114490.28;;;-146.31;74.06
31195;BME280;17819;36.316;-93.164;2022-08-21T06:42:57;114490.28;;;-146.31;73.89
31195;BME280;17819;36.316;-93.164;2022-08-21T06:45:02;114490.28;;;-146.31;73.61
31195;BME280;17819;36.316;-93.164;2022-08-21T06:47:06;114490.28;;;-146.31;73.76
31195;BME280;17819;36.316;-93.164;2022-08-21T06:49:10;114490.28;;;-146.31;73.58
31195;BME280;17819;36.316;-93.164;2022-08-21T06:51:22;114490.28;;;-146.31;74.00
31195;BME280;17819;36.316;-93.164;2022-08-21T06:53:26;114490.28;;;-146.31;73.99
31195;BME280;17819;36.316;-93.164;2022-08-21T06:55:30;114490.28;;;-146.31;73.89
31195;BME280;17819;36.316;-93.164;2022-08-21T06:57:34;114490.28;;;-146.31;73.99
31195;BME280;17819;36.316;-93.164;2022-08-21T06:59:38;114490.28;;;-146.31;74.69
31195;BME280;17819;36.316;-93.164;2022-08-21T07:01:42;114490.28;;;-146.31;74.58
31195;BME280;17819;36.316;-93.164;2022-08-21T07:03:46;114490.28;;;-146.31;74.76
31195;BME280;17819;36.316;-93.164;2022-08-21T07:05:49;114490.28;;;-146.31;75.07
31195;BME280;17819;36.316;-93.164;2022-08-21T07:07:53;114490.28;;;-146.31;75.31
31195;BME280;17819;36.316;-93.164;2022-08-21T07:09:57;114490.28;;;-146.31;75.32
31195;BME280;17819;36.316;-93.164;2022-08-21T07:12:01;114490.28;;;-146.31;75.96
31195;BME280;17819;36.316;-93.164;2022-08-21T07:14:05;114490.28;;;-146.31;76.18
31195;BME280;17819;36.316;-93.164;2022-08-21T07:16:09;114490.28;;;-146.31;76.56
31195;BME280;17819;36.316;-93.164;2022-08-21T07:18:13;114490.28;;;-146.31;76.98
31195;BME280;17819;36.316;-93.164;2022-08-21T07:20:19;114490.28;;;-146.31;77.84
31195;BME280;17819;36.316;-93.164;2022-08-21T07:22:23;114490.28;;;-146.31;77.96
31195;BME280;17819;36.316;-93.164;2022-08-21T07:24:27;114490.28;;;-146.31;78.47
31195;BME280;17819;36.316;-93.164;2022-08-21T07:26:35;114490.28;;;-146.31;78.77
31195;BME280;17819;36.316;-93.164;2022-08-21T07:28:40;114490.28;;;-146.31;79.14
31195;BME280;17819;36.316;-93.164;2022-08-21T07:30:44;114490.28;;;-146.31;79.07
31195;BME280;17819;36.316;-93.164;2022-08-21T07:32:47;114490.28;;;-146.31;79.95
31195;BME280;17819;36.316;-93.164;2022-08-21T07:34:55;114490.28;;;-146.31;80.68
31195;BME280;17819;36.316;-93.164;2022-08-21T07:36:58;114490.28;;;-146.31;81.87
31195;BME280;17819;36.316;-93.164;2022-08-21T07:39:11;114490.28;;;-146.31;82.56
31195;BME280;17819;36.316;-93.164;2022-08-21T07:41:15;114490.28;;;-146.31;83.42
31195;BME280;17819;36.316;-93.164;2022-08-21T07:43:20;114490.28;;;-146.31;83.77
31195;BME280;17819;36.316;-93.164;2022-08-21T07:45:24;114490.28;;;-146.31;84.25
31195;BME280;17819;36.316;-93.164;2022-08-21T07:47:29;114490.28;;;-146.31;84.80
31195;BME280;17819;36.316;-93.164;2022-08-21T07:49:44;114490.28;;;-146.31;85.50
31195;BME280;17819;36.316;-93.164;2022-08-21T07:51:49;114490.28;;;-146.31;86.31
31195;BME280;17819;36.316;-93.164;2022-08-21T07:53:54;114490.28;;;-146.31;87.28
31195;BME280;17819;36.316;-93.164;2022-08-21T07:55:59;114490.28;;;-146.31;88.45
31195;BME280;17819;36.316;-93.164;2022-08-21T07:58:02;114490.28;;;-146.31;89.57
31195;BME280;17819;36.316;-93.164;2022-08-21T08:00:07;114490.28;;;-146.31;90.27
31195;BME280;17819;36.316;-93.164;2022-08-21T08:02:24;114490.28;;;-146.31;91.15
31195;BME280;17819;36.316;-93.164;2022-08-21T08:04:28;114490.28;;;-146.31;91.82
31195;BME280;17819;36.316;-93.164;2022-08-21T08:06:31;114490.28;;;-146.31;92.42
31195;BME280;17819;36.316;-93.164;2022-08-21T08:08:35;114490.28;;;-146.31;92.93
31195;BME280;17819;36.316;-93.164;2022-08-21T08:10:39;114490.28;;;-146.31;92.65
31195;BME280;17819;36.316;-93.164;2022-08-21T08:12:43;114490.28;;;-146.31;92.51
31195;BME280;17819;36.316;-93.164;2022-08-21T08:14:51;114490.28;;;-146.31;92.41
31195;BME280;17819;36.316;-93.164;2022-08-21T08:16:57;114490.28;;;-146.31;92.38
31195;BME280;17819;36.316;-93.164;2022-08-21T08:19:02;114490.28;;;-146.31;92.10
31195;BME280;17819;36.316;-93.164;2022-08-21T08:21:06;114490.28;;;-146.31;91.48
31195;BME280;17819;36.316;-93.164;2022-08-21T08:23:10;114490.28;;;-146.31;92.54
31195;BME280;17819;36.316;-93.164;2022-08-21T08:25:15;114490.28;;;-146.31;91.69
31195;BME280;17819;36.316;-93.164;2022-08-21T08:27:20;114490.28;;;-146.31;91.37
31195;BME280;17819;36.316;-93.164;2022-08-21T08:29:24;114490.28;;;-146.31;91.26
31195;BME280;17819;36.316;-93.164;2022-08-21T08:31:30;114490.28;;;-146.31;90.50
31195;BME280;17819;36.316;-93.164;2022-08-21T08:33:37;114490.28;;;-146.31;89.44
31195;BME280;17819;36.316;-93.164;2022-08-21T08:35:44;114490.28;;;-146.31;89.05
31195;BME280;17819;36.316;-93.164;2022-08-21T08:37:51;114490.28;;;-146.31;87.64
31195;BME280;17819;36.316;-93.164;2022-08-21T08:39:55;114490.28;;;-146.31;87.24
31195;BME280;17819;36.316;-93.164;2022-08-21T08:42:03;114490.28;;;-146.31;88.06
31195;BME280;17819;36.316;-93.164;2022-08-21T08:44:28;114490.28;;;-146.31;87.34
31195;BME280;17819;36.316;-93.164;2022-08-21T08:46:36;114490.28;;;-146.31;86.78
31195;BME280;17819;36.316;-93.164;2022-08-21T08:50:54;114490.28;;;-146.31;86.64
31195;BME280;17819;36.316;-93.164;2022-08-21T08:53:23;114490.28;;;-146.31;86.87
31195;BME280;17819;36.316;-93.164;2022-08-21T08:55:37;114490.28;;;-146.31;86.32
31195;BME280;17819;36.316;-93.164;2022-08-21T08:57:46;114490.28;;;-146.31;86.18
31195;BME280;17819;36.316;-93.164;2022-08-21T08:59:52;114490.28;;;-146.31;86.01
31195;BME280;17819;36.316;-93.164;2022-08-21T09:02:04;114490.28;;;-146.31;86.32
31195;BME280;17819;36.316;-93.164;2022-08-21T09:04:09;114490.28;;;-146.31;86.32
31195;BME280;17819;36.316;-93.164;2022-08-21T09:08:47;114490.28;;;-146.31;87.20
31195;BME280;17819;36.316;-93.164;2022-08-21T09:19:59;114490.28;;;-146.31;90.54
31195;BME280;17819;36.316;-93.164;2022-08-21T09:22:08;114490.28;;;-146.31;91.23
31195;BME280;17819;36.316;-93.164;2022-08-21T09:26:36;114490.28;;;-146.31;92.90
31195;BME280;17819;36.316;-93.164;2022-08-21T09:28:45;114490.28;;;-146.31;93.47
31195;BME280;17819;36.316;-93.164;2022-08-21T09:30:55;114490.28;;;-146.31;94.51
31195;BME280;17819;36.316;-93.164;2022-08-21T09:33:00;114490.28;;;-146.31;95.66
31195;BME280;17819;36.316;-93.164;2022-08-21T09:35:07;114490.28;;;-146.31;96.54
31195;BME280;17819;36.316;-93.164;2022-08-21T09:37:17;114490.28;;;-146.31;97.51
31195;BME280;17819;36.316;-93.164;2022-08-21T09:39:28;114490.28;;;-146.31;98.26
31195;BME280;17819;36.316;-93.164;2022-08-21T09:41:32;114490.28;;;-146.31;98.82
31195;BME280;17819;36.316;-93.164;2022-08-21T09:43:38;114490.28;;;-146.31;99.47
31195;BME280;17819;36.316;-93.164;2022-08-21T09:45:42;114490.28;;;-146.31;99.80
31195;BME280;17819;36.316;-93.164;2022-08-21T09:47:47;114490.28;;;-146.31;100.00
31195;BME280;17819;36.316;-93.164;2022-08-21T09:49:51;114490.28;;;-146.31;100.00
31195;BME280;17819;36.316;-93.164;2022-08-21T09:51:58;114490.28;;;-146.31;100.00
31195;BME280;17819;36.316;-93.164;2022-08-21T09:56:16;114490.28;;;-146.31;100.00
31195;BME280;17819;36.316;-93.164;2022-08-21T09:58:40;114490.28;;;-146.31;100.00
31195;BME280;17819;36.316;-93.164;2022-08-21T10:00:45;114490.28;;;-146.31;100.00
31195;BME280;17819;36.316;-93.164;2022-08-21T10:02:49;114490.28;;;-146.31;100.00
31195;BME280;17819;36.316;-93.164;2022-08-21T10:04:54;114490.28;;;-146.31;100.00
31195;BME280;17819;36.316;-93.164;2022-08-21T10:07:11;114490.28;;;-146.31;100.00
31195;BME280;17819;36.316;-93.164;2022-08-21T10:09:18;114490.28;;;-146.31;100.00
31195;BME280;17819;36.316;-93.164;2022-08-21T10:11:23;114490.28;;;-146.31;100.00
31195;BME280;17819;36.316;-93.164;2022-08-21T10:24:40;114490.28;;;-146.31;100.00
31195;BME280;17819;36.316;-93.164;2022-08-21T10:31:21;114490.28;;;-146.31;100.00
31195;BME280;17819;36.316;-93.164;2022-08-21T10:33:37;114490.28;;;-146.31;100.00
31195;BME280;17819;36.316;-93.164;2022-08-21T10:35:54;114490.28;;;-146.31;100.00
31195;BME280;17819;36.316;-93.164;2022-08-21T10:42:33;114490.28;;;-146.31;100.00
31195;BME280;17819;36.316;-93.164;2022-08-21T10:49:22;114490.28;;;-146.31;100.00
31195;BME280;17819;36.316;-93.164;2022-08-21T10:51:35;114490.28;;;-146.31;100.00
31195;BME280;17819;36.316;-93.164;2022-08-21T10:55:48;114490.28;;;-146.31;100.00
31195;BME280;17819;36.316;-93.164;2022-08-21T10:57:56;114490.28;;;-146.31;100.00
31195;BME280;17819;36.316;-93.164;2022-08-21T11:00:09;114490.28;;;-146.31;100.00
31195;BME280;17819;36.316;-93.164;2022-08-21T11:02:21;114490.28;;;-146.31;100.00
31195;BME280;17819;36.316;-93.164;2022-08-21T11:06:52;114490.28;;;-146.31;100.00
31195;BME280;17819;36.316;-93.164;2022-08-21T11:09:11;114490.28;;;-146.31;100.00
31195;BME280;17819;36.316;-93.164;2022-08-21T11:11:23;114490.28;;;-146.31;100.00
31195;BME280;17819;36.316;-93.164;2022-08-21T11:13:48;114490.28;;;-146.31;100.00
31195;BME280;17819;36.316;-93.164;2022-08-21T11:16:02;114490.28;;;-146.31;100.00